sensor_id;sensor_type;location;lat;lon;timestamp;temperature;humidity
64817;DHT22;69411;45.656;11.740;2024-03-22T00:00:33;11.10;77.00
64817;DHT22;69411;45.656;11.740;2024-03-22T00:02:59;11.00;77.10
64817;DHT22;69411;45.656;11.740;2024-03-22T00:05:25;11.00;77.00
64817;DHT22;69411;45.656;11.740;2024-03-22T00:07:51;10.90;77.10
64817;DHT22;69411;45.656;11.740;2024-03-22T00:10:17;10.90;77.20
64817;DHT22;69411;45.656;11.740;2024-03-22T00:12:43;10.90;77.30
64817;DHT22;69411;45.656;11.740;2024-03-22T00:15:09;10.90;77.10
64817;DHT22;69411;45.656;11.740;2024-03-22T00:17:35;10.90;77.20
64817;DHT22;69411;45.656;11.740;2024-03-22T00:20:01;10.80;77.30
64817;DHT22;69411;45.656;11.740;2024-03-22T00:22:27;10.80;77.50
64817;DHT22;69411;45.656;11.740;2024-03-22T00:24:53;10.80;77.60
64817;DHT22;69411;45.656;11.740;2024-03-22T00:27:19;10.80;77.50
64817;DHT22;69411;45.656;11.740;2024-03-22T00:29:45;10.80;77.60
64817;DHT22;69411;45.656;11.740;2024-03-22T00:32:11;10.80;77.60
64817;DHT22;69411;45.656;11.740;2024-03-22T00:34:37;10.90;77.50
64817;DHT22;69411;45.656;11.740;2024-03-22T00:37:03;10.80;77.60
64817;DHT22;69411;45.656;11.740;2024-03-22T00:39:29;10.80;77.60
64817;DHT22;69411;45.656;11.740;2024-03-22T00:41:55;10.80;77.50
64817;DHT22;69411;45.656;11.740;2024-03-22T00:44:21;10.80;77.40
64817;DHT22;69411;45.656;11.740;2024-03-22T00:46:47;10.80;77.20
64817;DHT22;69411;45.656;11.740;2024-03-22T00:49:13;10.80;77.20
64817;DHT22;69411;45.656;11.740;2024-03-22T00:51:39;10.70;77.10
64817;DHT22;69411;45.656;11.740;2024-03-22T00:54:05;10.70;77.10
64817;DHT22;69411;45.656;11.740;2024-03-22T00:56:31;10.70;77.10
64817;DHT22;69411;45.656;11.740;2024-03-22T00:58:57;10.70;77.00
64817;DHT22;69411;45.656;11.740;2024-03-22T01:01:23;10.60;77.00
64817;DHT22;69411;45.656;11.740;2024-03-22T01:03:49;10.60;77.00
64817;DHT22;69411;45.656;11.740;2024-03-22T01:06:15;10.60;77.00
64817;DHT22;69411;45.656;11.740;2024-03-22T01:08:41;10.50;77.10
64817;DHT22;69411;45.656;11.740;2024-03-22T01:11:07;10.50;77.20
64817;DHT22;69411;45.656;11.740;2024-03-22T01:16:17;10.50;77.00
64817;DHT22;69411;45.656;11.740;2024-03-22T01:18:43;10.50;77.10
64817;DHT22;69411;45.656;11.740;2024-03-22T01:21:09;10.40;77.20
64817;DHT22;69411;45.656;11.740;2024-03-22T01:23:35;10.40;77.20
64817;DHT22;69411;45.656;11.740;2024-03-22T01:26:01;10.40;77.20
64817;DHT22;69411;45.656;11.740;2024-03-22T01:28:27;10.40;77.20
64817;DHT22;69411;45.656;11.740;2024-03-22T01:30:53;10.40;77.20
64817;DHT22;69411;45.656;11.740;2024-03-22T01:33:19;10.40;77.20
64817;DHT22;69411;45.656;11.740;2024-03-22T01:35:45;10.30;77.00
64817;DHT22;69411;45.656;11.740;2024-03-22T01:38:11;10.30;77.00
64817;DHT22;69411;45.656;11.740;2024-03-22T01:40:37;10.30;77.00
64817;DHT22;69411;45.656;11.740;2024-03-22T01:43:03;10.20;77.00
64817;DHT22;69411;45.656;11.740;2024-03-22T01:45:32;10.20;77.20
64817;DHT22;69411;45.656;11.740;2024-03-22T01:47:59;10.20;77.10
64817;DHT22;69411;45.656;11.740;2024-03-22T01:50:27;10.20;77.20
64817;DHT22;69411;45.656;11.740;2024-03-22T01:52:53;10.10;77.20
64817;DHT22;69411;45.656;11.740;2024-03-22T01:55:20;10.10;77.30
64817;DHT22;69411;45.656;11.740;2024-03-22T01:57:46;10.10;77.20
64817;DHT22;69411;45.656;11.740;2024-03-22T02:00:13;10.10;77.00
64817;DHT22;69411;45.656;11.740;2024-03-22T02:02:39;10.10;77.10
64817;DHT22;69411;45.656;11.740;2024-03-22T02:05:15;10.10;77.10
64817;DHT22;69411;45.656;11.740;2024-03-22T02:07:42;10.00;77.10
64817;DHT22;69411;45.656;11.740;2024-03-22T02:10:09;10.10;77.10
64817;DHT22;69411;45.656;11.740;2024-03-22T02:12:39;10.00;77.20
64817;DHT22;69411;45.656;11.740;2024-03-22T02:15:05;10.00;77.20
64817;DHT22;69411;45.656;11.740;2024-03-22T02:17:32;10.00;77.10
64817;DHT22;69411;45.656;11.740;2024-03-22T02:19:59;10.00;77.10
64817;DHT22;69411;45.656;11.740;2024-03-22T02:22:26;9.90;77.20
64817;DHT22;69411;45.656;11.740;2024-03-22T02:24:53;10.00;77.10
64817;DHT22;69411;45.656;11.740;2024-03-22T02:27:19;9.90;77.20
64817;DHT22;69411;45.656;11.740;2024-03-22T02:29:45;9.90;77.20
64817;DHT22;69411;45.656;11.740;2024-03-22T02:32:11;9.90;77.20
64817;DHT22;69411;45.656;11.740;2024-03-22T02:34:37;9.90;77.30
64817;DHT22;69411;45.656;11.740;2024-03-22T02:37:03;9.90;77.40
64817;DHT22;69411;45.656;11.740;2024-03-22T02:39:30;9.80;77.40
64817;DHT22;69411;45.656;11.740;2024-03-22T02:41:56;9.90;77.50
64817;DHT22;69411;45.656;11.740;2024-03-22T02:44:22;9.90;77.40
64817;DHT22;69411;45.656;11.740;2024-03-22T02:46:48;9.80;77.30
64817;DHT22;69411;45.656;11.740;2024-03-22T02:49:14;9.70;77.30
64817;DHT22;69411;45.656;11.740;2024-03-22T02:51:40;9.70;77.40
64817;DHT22;69411;45.656;11.740;2024-03-22T02:54:06;9.70;77.40
64817;DHT22;69411;45.656;11.740;2024-03-22T02:56:32;9.60;77.30
64817;DHT22;69411;45.656;11.740;2024-03-22T02:58:58;9.60;77.40
64817;DHT22;69411;45.656;11.740;2024-03-22T03:01:24;9.60;77.50
64817;DHT22;69411;45.656;11.740;2024-03-22T03:03:50;9.60;77.60
64817;DHT22;69411;45.656;11.740;2024-03-22T03:06:16;9.60;77.60
64817;DHT22;69411;45.656;11.740;2024-03-22T03:08:45;9.50;77.60
64817;DHT22;69411;45.656;11.740;2024-03-22T03:11:11;9.50;77.60
64817;DHT22;69411;45.656;11.740;2024-03-22T03:13:37;9.50;77.70
64817;DHT22;69411;45.656;11.740;2024-03-22T03:16:04;9.50;77.70
64817;DHT22;69411;45.656;11.740;2024-03-22T03:18:30;9.50;77.70
64817;DHT22;69411;45.656;11.740;2024-03-22T03:20:55;9.50;77.70
64817;DHT22;69411;45.656;11.740;2024-03-22T03:23:21;9.50;77.80
64817;DHT22;69411;45.656;11.740;2024-03-22T03:25:47;9.60;77.80
64817;DHT22;69411;45.656;11.740;2024-03-22T03:28:14;9.50;77.70
64817;DHT22;69411;45.656;11.740;2024-03-22T03:30:40;9.50;77.60
64817;DHT22;69411;45.656;11.740;2024-03-22T03:33:06;9.50;77.60
64817;DHT22;69411;45.656;11.740;2024-03-22T03:35:31;9.50;77.70
64817;DHT22;69411;45.656;11.740;2024-03-22T03:37:58;9.50;77.70
64817;DHT22;69411;45.656;11.740;2024-03-22T03:40:23;9.50;77.70
64817;DHT22;69411;45.656;11.740;2024-03-22T03:42:51;9.40;77.70
64817;DHT22;69411;45.656;11.740;2024-03-22T03:45:17;9.50;77.60
64817;DHT22;69411;45.656;11.740;2024-03-22T03:47:43;9.40;77.70
64817;DHT22;69411;45.656;11.740;2024-03-22T03:50:09;9.40;77.60
64817;DHT22;69411;45.656;11.740;2024-03-22T03:52:35;9.40;77.40
64817;DHT22;69411;45.656;11.740;2024-03-22T03:55:01;9.40;77.60
64817;DHT22;69411;45.656;11.740;2024-03-22T03:57:27;9.40;77.70
64817;DHT22;69411;45.656;11.740;2024-03-22T03:59:53;9.40;77.70
64817;DHT22;69411;45.656;11.740;2024-03-22T04:02:19;9.40;77.70
64817;DHT22;69411;45.656;11.740;2024-03-22T04:04:45;9.40;77.80
64817;DHT22;69411;45.656;11.740;2024-03-22T04:07:11;9.50;77.70
64817;DHT22;69411;45.656;11.740;2024-03-22T04:09:37;9.50;77.60
64817;DHT22;69411;45.656;11.740;2024-03-22T04:12:03;9.50;77.50
64817;DHT22;69411;45.656;11.740;2024-03-22T04:14:29;9.50;77.50
64817;DHT22;69411;45.656;11.740;2024-03-22T04:16:55;9.50;77.50
64817;DHT22;69411;45.656;11.740;2024-03-22T04:19:21;9.50;77.40
64817;DHT22;69411;45.656;11.740;2024-03-22T04:21:49;9.40;77.30
64817;DHT22;69411;45.656;11.740;2024-03-22T04:24:15;9.40;77.20
64817;DHT22;69411;45.656;11.740;2024-03-22T04:26:41;9.40;77.10
64817;DHT22;69411;45.656;11.740;2024-03-22T04:29:07;9.40;77.30
64817;DHT22;69411;45.656;11.740;2024-03-22T04:31:33;9.30;77.40
64817;DHT22;69411;45.656;11.740;2024-03-22T04:33:59;9.30;77.50
64817;DHT22;69411;45.656;11.740;2024-03-22T04:36:25;9.30;77.50
64817;DHT22;69411;45.656;11.740;2024-03-22T04:38:51;9.30;77.50
64817;DHT22;69411;45.656;11.740;2024-03-22T04:41:17;9.40;77.70
64817;DHT22;69411;45.656;11.740;2024-03-22T04:43:43;9.40;77.70
64817;DHT22;69411;45.656;11.740;2024-03-22T04:46:09;9.40;77.60
64817;DHT22;69411;45.656;11.740;2024-03-22T04:48:35;9.40;77.60
64817;DHT22;69411;45.656;11.740;2024-03-22T04:51:01;9.40;77.40
64817;DHT22;69411;45.656;11.740;2024-03-22T04:53:27;9.40;77.50
64817;DHT22;69411;45.656;11.740;2024-03-22T04:55:53;9.40;77.40
64817;DHT22;69411;45.656;11.740;2024-03-22T04:58:20;9.40;77.30
64817;DHT22;69411;45.656;11.740;2024-03-22T05:00:49;9.40;77.30
64817;DHT22;69411;45.656;11.740;2024-03-22T05:03:15;9.40;77.30
64817;DHT22;69411;45.656;11.740;2024-03-22T05:05:42;9.40;77.30
64817;DHT22;69411;45.656;11.740;2024-03-22T05:08:09;9.40;77.30
64817;DHT22;69411;45.656;11.740;2024-03-22T05:11:03;9.30;77.20
64817;DHT22;69411;45.656;11.740;2024-03-22T05:13:29;9.30;77.30
64817;DHT22;69411;45.656;11.740;2024-03-22T05:15:55;9.20;77.20
64817;DHT22;69411;45.656;11.740;2024-03-22T05:18:21;9.30;77.20
64817;DHT22;69411;45.656;11.740;2024-03-22T05:20:46;9.20;77.20
64817;DHT22;69411;45.656;11.740;2024-03-22T05:23:12;9.20;77.30
64817;DHT22;69411;45.656;11.740;2024-03-22T05:25:38;9.20;77.30
64817;DHT22;69411;45.656;11.740;2024-03-22T05:28:04;9.30;77.30
64817;DHT22;69411;45.656;11.740;2024-03-22T05:30:30;9.40;77.40
64817;DHT22;69411;45.656;11.740;2024-03-22T05:32:56;9.50;77.50
64817;DHT22;69411;45.656;11.740;2024-03-22T05:35:23;9.70;77.80
64817;DHT22;69411;45.656;11.740;2024-03-22T05:37:48;9.90;77.90
64817;DHT22;69411;45.656;11.740;2024-03-22T05:40:15;10.20;77.80
64817;DHT22;69411;45.656;11.740;2024-03-22T05:42:42;10.60;77.70
64817;DHT22;69411;45.656;11.740;2024-03-22T05:45:08;10.90;77.30
64817;DHT22;69411;45.656;11.740;2024-03-22T05:47:34;11.30;76.90
64817;DHT22;69411;45.656;11.740;2024-03-22T05:50:00;11.60;75.70
64817;DHT22;69411;45.656;11.740;2024-03-22T05:52:27;11.90;74.50
64817;DHT22;69411;45.656;11.740;2024-03-22T05:54:53;12.40;74.60
64817;DHT22;69411;45.656;11.740;2024-03-22T05:57:19;12.70;74.20
64817;DHT22;69411;45.656;11.740;2024-03-22T05:59:45;13.00;73.40
64817;DHT22;69411;45.656;11.740;2024-03-22T06:02:11;13.30;72.50
64817;DHT22;69411;45.656;11.740;2024-03-22T06:04:37;13.60;72.10
64817;DHT22;69411;45.656;11.740;2024-03-22T06:07:03;13.90;71.40
64817;DHT22;69411;45.656;11.740;2024-03-22T06:09:30;14.40;70.70
64817;DHT22;69411;45.656;11.740;2024-03-22T06:12:22;14.80;70.20
64817;DHT22;69411;45.656;11.740;2024-03-22T06:14:47;15.20;68.90
64817;DHT22;69411;45.656;11.740;2024-03-22T06:17:14;15.50;68.50
64817;DHT22;69411;45.656;11.740;2024-03-22T06:19:41;15.90;67.60
64817;DHT22;69411;45.656;11.740;2024-03-22T06:22:07;16.10;66.90
64817;DHT22;69411;45.656;11.740;2024-03-22T06:24:33;16.40;66.50
64817;DHT22;69411;45.656;11.740;2024-03-22T06:26:59;16.70;66.40
64817;DHT22;69411;45.656;11.740;2024-03-22T06:29:25;17.10;65.10
64817;DHT22;69411;45.656;11.740;2024-03-22T06:31:51;17.30;64.40
64817;DHT22;69411;45.656;11.740;2024-03-22T06:34:18;17.40;63.20
64817;DHT22;69411;45.656;11.740;2024-03-22T06:36:44;17.60;63.20
64817;DHT22;69411;45.656;11.740;2024-03-22T06:39:10;17.70;62.90
64817;DHT22;69411;45.656;11.740;2024-03-22T06:41:36;17.90;61.40
64817;DHT22;69411;45.656;11.740;2024-03-22T06:44:02;18.20;61.70
64817;DHT22;69411;45.656;11.740;2024-03-22T06:46:28;18.60;61.20
64817;DHT22;69411;45.656;11.740;2024-03-22T06:48:54;18.90;61.00
64817;DHT22;69411;45.656;11.740;2024-03-22T06:51:20;19.10;59.60
64817;DHT22;69411;45.656;11.740;2024-03-22T06:53:46;19.30;59.20
64817;DHT22;69411;45.656;11.740;2024-03-22T06:56:13;19.40;58.80
64817;DHT22;69411;45.656;11.740;2024-03-22T06:58:39;19.50;58.40
64817;DHT22;69411;45.656;11.740;2024-03-22T07:01:06;19.60;58.40
64817;DHT22;69411;45.656;11.740;2024-03-22T07:03:32;19.70;57.60
64817;DHT22;69411;45.656;11.740;2024-03-22T07:05:59;19.70;58.20
64817;DHT22;69411;45.656;11.740;2024-03-22T07:08:26;19.80;57.70
64817;DHT22;69411;45.656;11.740;2024-03-22T07:10:54;19.90;57.80
64817;DHT22;69411;45.656;11.740;2024-03-22T07:13:20;20.00;57.80
64817;DHT22;69411;45.656;11.740;2024-03-22T07:15:46;20.20;56.90
64817;DHT22;69411;45.656;11.740;2024-03-22T07:18:14;20.20;56.60
64817;DHT22;69411;45.656;11.740;2024-03-22T07:20:41;20.30;56.60
64817;DHT22;69411;45.656;11.740;2024-03-22T07:23:07;20.40;55.70
64817;DHT22;69411;45.656;11.740;2024-03-22T07:25:33;20.40;56.20
64817;DHT22;69411;45.656;11.740;2024-03-22T07:27:59;20.50;55.60
64817;DHT22;69411;45.656;11.740;2024-03-22T07:30:25;20.50;55.80
64817;DHT22;69411;45.656;11.740;2024-03-22T07:32:51;20.60;55.50
64817;DHT22;69411;45.656;11.740;2024-03-22T07:35:17;20.60;55.30
64817;DHT22;69411;45.656;11.740;2024-03-22T07:37:43;20.70;55.60
64817;DHT22;69411;45.656;11.740;2024-03-22T07:40:10;20.80;55.40
64817;DHT22;69411;45.656;11.740;2024-03-22T07:42:37;20.80;54.70
64817;DHT22;69411;45.656;11.740;2024-03-22T07:45:02;20.80;54.10
64817;DHT22;69411;45.656;11.740;2024-03-22T07:47:30;20.90;54.20
64817;DHT22;69411;45.656;11.740;2024-03-22T07:49:55;20.80;53.00
64817;DHT22;69411;45.656;11.740;2024-03-22T07:52:21;20.80;53.60
64817;DHT22;69411;45.656;11.740;2024-03-22T07:54:47;20.80;53.50
64817;DHT22;69411;45.656;11.740;2024-03-22T07:57:13;20.80;54.20
64817;DHT22;69411;45.656;11.740;2024-03-22T07:59:39;20.90;54.70
64817;DHT22;69411;45.656;11.740;2024-03-22T08:02:05;20.90;54.60
64817;DHT22;69411;45.656;11.740;2024-03-22T08:04:31;20.90;54.70
64817;DHT22;69411;45.656;11.740;2024-03-22T08:06:57;20.90;54.90
64817;DHT22;69411;45.656;11.740;2024-03-22T08:09:23;20.90;54.30
64817;DHT22;69411;45.656;11.740;2024-03-22T08:11:49;20.90;54.10
64817;DHT22;69411;45.656;11.740;2024-03-22T08:14:15;20.90;54.50
64817;DHT22;69411;45.656;11.740;2024-03-22T08:16:42;20.90;55.10
64817;DHT22;69411;45.656;11.740;2024-03-22T08:19:08;21.00;55.10
64817;DHT22;69411;45.656;11.740;2024-03-22T08:21:34;21.00;55.30
64817;DHT22;69411;45.656;11.740;2024-03-22T08:24:00;21.00;55.00
64817;DHT22;69411;45.656;11.740;2024-03-22T08:26:26;21.00;55.40
64817;DHT22;69411;45.656;11.740;2024-03-22T08:28:52;21.10;54.60
64817;DHT22;69411;45.656;11.740;2024-03-22T08:31:18;21.10;54.80
64817;DHT22;69411;45.656;11.740;2024-03-22T08:33:51;21.20;54.60
64817;DHT22;69411;45.656;11.740;2024-03-22T08:36:17;21.20;54.40
64817;DHT22;69411;45.656;11.740;2024-03-22T08:38:43;21.20;54.80
64817;DHT22;69411;45.656;11.740;2024-03-22T08:41:10;21.30;54.30
64817;DHT22;69411;45.656;11.740;2024-03-22T08:43:36;21.30;53.70
64817;DHT22;69411;45.656;11.740;2024-03-22T08:46:02;21.20;53.40
64817;DHT22;69411;45.656;11.740;2024-03-22T08:48:29;21.20;53.50
64817;DHT22;69411;45.656;11.740;2024-03-22T08:50:55;21.20;54.10
64817;DHT22;69411;45.656;11.740;2024-03-22T08:53:21;21.30;54.10
64817;DHT22;69411;45.656;11.740;2024-03-22T08:55:47;21.20;54.30
64817;DHT22;69411;45.656;11.740;2024-03-22T08:58:14;21.30;53.70
64817;DHT22;69411;45.656;11.740;2024-03-22T09:00:41;21.30;53.60
64817;DHT22;69411;45.656;11.740;2024-03-22T09:03:07;21.30;53.70
64817;DHT22;69411;45.656;11.740;2024-03-22T09:05:33;21.40;53.70
64817;DHT22;69411;45.656;11.740;2024-03-22T09:07:59;21.40;53.10
64817;DHT22;69411;45.656;11.740;2024-03-22T09:10:26;21.40;52.90
64817;DHT22;69411;45.656;11.740;2024-03-22T09:12:52;21.50;52.60
64817;DHT22;69411;45.656;11.740;2024-03-22T09:15:18;21.50;52.50
64817;DHT22;69411;45.656;11.740;2024-03-22T09:17:44;21.50;52.80
64817;DHT22;69411;45.656;11.740;2024-03-22T09:20:11;21.60;53.20
64817;DHT22;69411;45.656;11.740;2024-03-22T09:22:37;21.60;53.20
64817;DHT22;69411;45.656;11.740;2024-03-22T09:25:05;21.70;52.80
64817;DHT22;69411;45.656;11.740;2024-03-22T09:27:31;21.70;52.20
64817;DHT22;69411;45.656;11.740;2024-03-22T09:29:58;21.70;51.70
64817;DHT22;69411;45.656;11.740;2024-03-22T09:32:24;21.80;52.00
64817;DHT22;69411;45.656;11.740;2024-03-22T09:34:49;21.80;51.90
64817;DHT22;69411;45.656;11.740;2024-03-22T09:37:18;21.90;51.90
64817;DHT22;69411;45.656;11.740;2024-03-22T09:39:44;21.90;51.70
64817;DHT22;69411;45.656;11.740;2024-03-22T09:42:16;21.90;51.80
64817;DHT22;69411;45.656;11.740;2024-03-22T09:44:48;21.90;50.50
64817;DHT22;69411;45.656;11.740;2024-03-22T09:47:17;21.90;49.40
64817;DHT22;69411;45.656;11.740;2024-03-22T09:49:43;21.90;50.00
64817;DHT22;69411;45.656;11.740;2024-03-22T09:52:15;21.90;50.00
64817;DHT22;69411;45.656;11.740;2024-03-22T09:54:44;21.90;49.40
64817;DHT22;69411;45.656;11.740;2024-03-22T09:57:14;21.90;49.00
64817;DHT22;69411;45.656;11.740;2024-03-22T09:59:44;21.90;48.90
64817;DHT22;69411;45.656;11.740;2024-03-22T10:02:13;21.90;48.60
64817;DHT22;69411;45.656;11.740;2024-03-22T10:04:41;21.90;49.00
64817;DHT22;69411;45.656;11.740;2024-03-22T10:07:07;22.00;48.40
64817;DHT22;69411;45.656;11.740;2024-03-22T10:09:36;22.00;48.60
64817;DHT22;69411;45.656;11.740;2024-03-22T10:12:03;22.00;48.70
64817;DHT22;69411;45.656;11.740;2024-03-22T10:14:29;22.00;48.90
64817;DHT22;69411;45.656;11.740;2024-03-22T10:16:57;22.10;47.90
64817;DHT22;69411;45.656;11.740;2024-03-22T10:19:23;22.10;48.30
64817;DHT22;69411;45.656;11.740;2024-03-22T10:22:01;22.10;48.50
64817;DHT22;69411;45.656;11.740;2024-03-22T10:24:28;22.20;48.20
64817;DHT22;69411;45.656;11.740;2024-03-22T10:26:55;22.10;47.60
64817;DHT22;69411;45.656;11.740;2024-03-22T10:29:21;22.00;44.10
64817;DHT22;69411;45.656;11.740;2024-03-22T10:31:49;22.00;46.00
64817;DHT22;69411;45.656;11.740;2024-03-22T10:34:16;21.90;46.70
64817;DHT22;69411;45.656;11.740;2024-03-22T10:36:44;21.90;46.90
64817;DHT22;69411;45.656;11.740;2024-03-22T10:39:15;22.00;47.00
64817;DHT22;69411;45.656;11.740;2024-03-22T10:41:43;21.90;46.40
64817;DHT22;69411;45.656;11.740;2024-03-22T10:44:10;21.90;45.60
64817;DHT22;69411;45.656;11.740;2024-03-22T10:46:37;21.80;45.70
64817;DHT22;69411;45.656;11.740;2024-03-22T10:49:05;21.80;46.40
64817;DHT22;69411;45.656;11.740;2024-03-22T10:51:34;21.70;48.00
64817;DHT22;69411;45.656;11.740;2024-03-22T10:54:04;21.80;46.70
64817;DHT22;69411;45.656;11.740;2024-03-22T10:56:31;21.80;47.00
64817;DHT22;69411;45.656;11.740;2024-03-22T10:58:57;21.80;47.00
64817;DHT22;69411;45.656;11.740;2024-03-22T11:01:31;21.90;47.70
64817;DHT22;69411;45.656;11.740;2024-03-22T11:04:08;21.90;47.40
64817;DHT22;69411;45.656;11.740;2024-03-22T11:06:39;22.00;46.80
64817;DHT22;69411;45.656;11.740;2024-03-22T11:09:05;22.10;46.90
64817;DHT22;69411;45.656;11.740;2024-03-22T11:11:59;22.10;46.80
64817;DHT22;69411;45.656;11.740;2024-03-22T11:14:26;22.20;46.40
64817;DHT22;69411;45.656;11.740;2024-03-22T11:16:52;22.20;46.30
64817;DHT22;69411;45.656;11.740;2024-03-22T11:19:18;22.20;44.50
64817;DHT22;69411;45.656;11.740;2024-03-22T11:21:44;22.20;44.70
64817;DHT22;69411;45.656;11.740;2024-03-22T11:24:10;22.20;44.10
64817;DHT22;69411;45.656;11.740;2024-03-22T11:26:37;22.20;44.90
64817;DHT22;69411;45.656;11.740;2024-03-22T11:29:03;22.20;45.20
64817;DHT22;69411;45.656;11.740;2024-03-22T11:31:29;22.30;45.50
64817;DHT22;69411;45.656;11.740;2024-03-22T11:33:56;22.30;45.80
64817;DHT22;69411;45.656;11.740;2024-03-22T11:36:23;22.40;45.80
64817;DHT22;69411;45.656;11.740;2024-03-22T11:38:49;22.40;45.00
64817;DHT22;69411;45.656;11.740;2024-03-22T11:41:23;22.40;45.20
64817;DHT22;69411;45.656;11.740;2024-03-22T11:43:50;22.50;44.70
64817;DHT22;69411;45.656;11.740;2024-03-22T11:46:17;22.50;44.30
64817;DHT22;69411;45.656;11.740;2024-03-22T11:48:43;22.50;46.00
64817;DHT22;69411;45.656;11.740;2024-03-22T11:51:10;22.60;46.00
64817;DHT22;69411;45.656;11.740;2024-03-22T11:53:36;22.60;45.50
64817;DHT22;69411;45.656;11.740;2024-03-22T11:56:05;22.60;45.70
64817;DHT22;69411;45.656;11.740;2024-03-22T11:58:33;22.60;45.00
64817;DHT22;69411;45.656;11.740;2024-03-22T12:01:00;22.60;46.40
64817;DHT22;69411;45.656;11.740;2024-03-22T12:03:26;22.60;45.80
64817;DHT22;69411;45.656;11.740;2024-03-22T12:05:54;22.50;44.60
64817;DHT22;69411;45.656;11.740;2024-03-22T12:08:20;22.40;45.80
64817;DHT22;69411;45.656;11.740;2024-03-22T12:10:46;22.40;46.80
64817;DHT22;69411;45.656;11.740;2024-03-22T12:13:12;22.30;45.70
64817;DHT22;69411;45.656;11.740;2024-03-22T12:15:38;22.30;45.90
64817;DHT22;69411;45.656;11.740;2024-03-22T12:18:04;22.30;45.90
64817;DHT22;69411;45.656;11.740;2024-03-22T12:20:30;22.30;44.70
64817;DHT22;69411;45.656;11.740;2024-03-22T12:23:02;22.20;44.70
64817;DHT22;69411;45.656;11.740;2024-03-22T12:28:13;22.00;44.60
64817;DHT22;69411;45.656;11.740;2024-03-22T12:30:42;22.00;44.50
64817;DHT22;69411;45.656;11.740;2024-03-22T12:33:10;21.90;46.60
64817;DHT22;69411;45.656;11.740;2024-03-22T12:35:39;22.00;48.10
64817;DHT22;69411;45.656;11.740;2024-03-22T12:38:05;22.00;46.70
64817;DHT22;69411;45.656;11.740;2024-03-22T12:40:32;21.90;46.60
64817;DHT22;69411;45.656;11.740;2024-03-22T12:42:59;21.90;44.90
64817;DHT22;69411;45.656;11.740;2024-03-22T12:45:26;21.90;46.40
64817;DHT22;69411;45.656;11.740;2024-03-22T12:47:52;21.90;46.10
64817;DHT22;69411;45.656;11.740;2024-03-22T12:50:18;22.00;47.00
64817;DHT22;69411;45.656;11.740;2024-03-22T12:53:03;22.00;45.70
64817;DHT22;69411;45.656;11.740;2024-03-22T12:55:30;22.00;46.40
64817;DHT22;69411;45.656;11.740;2024-03-22T12:57:58;22.10;46.30
64817;DHT22;69411;45.656;11.740;2024-03-22T13:00:24;22.00;46.80
64817;DHT22;69411;45.656;11.740;2024-03-22T13:02:51;22.10;46.80
64817;DHT22;69411;45.656;11.740;2024-03-22T13:05:17;22.20;44.50
64817;DHT22;69411;45.656;11.740;2024-03-22T13:07:42;22.20;45.60
64817;DHT22;69411;45.656;11.740;2024-03-22T13:10:09;22.30;46.20
64817;DHT22;69411;45.656;11.740;2024-03-22T13:12:36;22.30;45.90
64817;DHT22;69411;45.656;11.740;2024-03-22T13:15:02;22.40;45.90
64817;DHT22;69411;45.656;11.740;2024-03-22T13:17:28;22.40;45.90
64817;DHT22;69411;45.656;11.740;2024-03-22T13:19:55;22.40;44.70
64817;DHT22;69411;45.656;11.740;2024-03-22T13:22:20;22.30;44.20
64817;DHT22;69411;45.656;11.740;2024-03-22T13:24:46;22.30;44.10
64817;DHT22;69411;45.656;11.740;2024-03-22T13:29:42;22.20;45.00
64817;DHT22;69411;45.656;11.740;2024-03-22T13:32:08;22.20;45.70
64817;DHT22;69411;45.656;11.740;2024-03-22T13:34:35;22.10;45.10
64817;DHT22;69411;45.656;11.740;2024-03-22T13:37:01;22.10;45.30
64817;DHT22;69411;45.656;11.740;2024-03-22T13:39:27;22.10;45.40
64817;DHT22;69411;45.656;11.740;2024-03-22T13:41:56;22.10;45.20
64817;DHT22;69411;45.656;11.740;2024-03-22T13:44:22;22.10;46.20
64817;DHT22;69411;45.656;11.740;2024-03-22T13:46:51;22.10;46.00
64817;DHT22;69411;45.656;11.740;2024-03-22T13:49:18;22.00;45.20
64817;DHT22;69411;45.656;11.740;2024-03-22T13:51:50;22.00;45.00
64817;DHT22;69411;45.656;11.740;2024-03-22T13:54:16;21.90;42.90
64817;DHT22;69411;45.656;11.740;2024-03-22T13:56:42;21.90;45.20
64817;DHT22;69411;45.656;11.740;2024-03-22T13:59:09;21.90;44.80
64817;DHT22;69411;45.656;11.740;2024-03-22T14:01:36;21.80;46.20
64817;DHT22;69411;45.656;11.740;2024-03-22T14:04:05;21.70;45.80
64817;DHT22;69411;45.656;11.740;2024-03-22T14:06:31;21.70;44.70
64817;DHT22;69411;45.656;11.740;2024-03-22T14:08:58;21.60;43.90
64817;DHT22;69411;45.656;11.740;2024-03-22T14:11:28;21.50;45.00
64817;DHT22;69411;45.656;11.740;2024-03-22T14:13:58;21.50;45.60
64817;DHT22;69411;45.656;11.740;2024-03-22T14:16:24;21.50;43.90
64817;DHT22;69411;45.656;11.740;2024-03-22T14:18:50;21.40;45.10
64817;DHT22;69411;45.656;11.740;2024-03-22T14:21:19;21.40;45.10
64817;DHT22;69411;45.656;11.740;2024-03-22T14:23:49;21.40;45.10
64817;DHT22;69411;45.656;11.740;2024-03-22T14:26:16;21.40;44.90
64817;DHT22;69411;45.656;11.740;2024-03-22T14:28:43;21.50;45.30
64817;DHT22;69411;45.656;11.740;2024-03-22T14:31:10;21.40;45.40
64817;DHT22;69411;45.656;11.740;2024-03-22T14:33:37;21.30;43.20
64817;DHT22;69411;45.656;11.740;2024-03-22T14:36:04;21.20;44.60
64817;DHT22;69411;45.656;11.740;2024-03-22T14:38:32;21.10;44.60
64817;DHT22;69411;45.656;11.740;2024-03-22T14:40:58;21.00;45.20
64817;DHT22;69411;45.656;11.740;2024-03-22T14:43:25;20.90;45.20
64817;DHT22;69411;45.656;11.740;2024-03-22T14:45:51;20.90;45.90
64817;DHT22;69411;45.656;11.740;2024-03-22T14:48:23;20.90;45.70
64817;DHT22;69411;45.656;11.740;2024-03-22T14:50:50;20.80;46.20
64817;DHT22;69411;45.656;11.740;2024-03-22T14:53:22;20.70;46.20
64817;DHT22;69411;45.656;11.740;2024-03-22T14:55:54;20.60;46.10
64817;DHT22;69411;45.656;11.740;2024-03-22T14:58:24;20.60;45.90
64817;DHT22;69411;45.656;11.740;2024-03-22T15:00:56;20.50;45.90
64817;DHT22;69411;45.656;11.740;2024-03-22T15:03:22;20.50;46.60
64817;DHT22;69411;45.656;11.740;2024-03-22T15:05:51;20.40;45.70
64817;DHT22;69411;45.656;11.740;2024-03-22T15:08:17;20.40;46.20
64817;DHT22;69411;45.656;11.740;2024-03-22T15:10:43;20.40;46.30
64817;DHT22;69411;45.656;11.740;2024-03-22T15:15:53;20.30;46.60
64817;DHT22;69411;45.656;11.740;2024-03-22T15:18:19;20.20;46.90
64817;DHT22;69411;45.656;11.740;2024-03-22T15:20:49;20.20;46.50
64817;DHT22;69411;45.656;11.740;2024-03-22T15:23:15;20.10;47.60
64817;DHT22;69411;45.656;11.740;2024-03-22T15:25:42;20.00;47.50
64817;DHT22;69411;45.656;11.740;2024-03-22T15:28:09;20.10;47.40